sensor_id;sensor_type;location;lat;lon;timestamp;P1;durP1;ratioP1;P2;durP2;ratioP2
34152;SDS011;20426;48.372;10.888;2023-05-07T00:00:06;11.07;;;5.50;;
34152;SDS011;20426;48.372;10.888;2023-05-07T00:00:38;9.38;;;5.15;;
34152;SDS011;20426;48.372;10.888;2023-05-07T00:01:08;7.68;;;4.70;;
34152;SDS011;20426;48.372;10.888;2023-05-07T00:01:39;9.43;;;5.30;;
34152;SDS011;20426;48.372;10.888;2023-05-07T00:02:10;9.80;;;5.00;;
34152;SDS011;20426;48.372;10.888;2023-05-07T00:02:40;7.35;;;4.85;;
34152;SDS011;20426;48.372;10.888;2023-05-07T00:03:11;7.50;;;5.22;;
34152;SDS011;20426;48.372;10.888;2023-05-07T00:03:43;8.20;;;5.25;;
34152;SDS011;20426;48.372;10.888;2023-05-07T00:04:14;10.65;;;5.25;;
34152;SDS011;20426;48.372;10.888;2023-05-07T00:04:45;8.18;;;5.50;;
34152;SDS011;20426;48.372;10.888;2023-05-07T00:05:15;8.48;;;4.72;;
34152;SDS011;20426;48.372;10.888;2023-05-07T00:05:46;6.93;;;4.70;;
34152;SDS011;20426;48.372;10.888;2023-05-07T00:06:18;11.70;;;5.53;;
34152;SDS011;20426;48.372;10.888;2023-05-07T00:06:49;11.35;;;5.78;;
34152;SDS011;20426;48.372;10.888;2023-05-07T00:07:20;11.93;;;4.80;;
34152;SDS011;20426;48.372;10.888;2023-05-07T00:07:51;11.45;;;5.32;;
34152;SDS011;20426;48.372;10.888;2023-05-07T00:08:22;10.63;;;5.22;;
34152;SDS011;20426;48.372;10.888;2023-05-07T00:08:53;9.57;;;5.18;;
34152;SDS011;20426;48.372;10.888;2023-05-07T00:09:24;9.23;;;4.65;;
34152;SDS011;20426;48.372;10.888;2023-05-07T00:09:55;7.75;;;5.03;;
34152;SDS011;20426;48.372;10.888;2023-05-07T00:10:26;6.28;;;4.68;;
34152;SDS011;20426;48.372;10.888;2023-05-07T00:10:56;9.30;;;5.00;;
34152;SDS011;20426;48.372;10.888;2023-05-07T00:11:27;8.85;;;5.20;;
34152;SDS011;20426;48.372;10.888;2023-05-07T00:11:58;9.38;;;4.53;;
34152;SDS011;20426;48.372;10.888;2023-05-07T00:12:29;5.80;;;4.80;;
34152;SDS011;20426;48.372;10.888;2023-05-07T00:13:01;9.13;;;4.43;;
34152;SDS011;20426;48.372;10.888;2023-05-07T00:13:32;6.70;;;4.45;;
34152;SDS011;20426;48.372;10.888;2023-05-07T00:14:05;7.70;;;4.35;;
34152;SDS011;20426;48.372;10.888;2023-05-07T00:14:36;9.05;;;5.28;;
34152;SDS011;20426;48.372;10.888;2023-05-07T00:15:06;7.47;;;4.88;;
34152;SDS011;20426;48.372;10.888;2023-05-07T00:15:38;6.40;;;4.15;;
34152;SDS011;20426;48.372;10.888;2023-05-07T00:16:08;6.93;;;4.55;;
34152;SDS011;20426;48.372;10.888;2023-05-07T00:16:39;9.18;;;4.80;;
34152;SDS011;20426;48.372;10.888;2023-05-07T00:17:10;6.55;;;4.72;;
34152;SDS011;20426;48.372;10.888;2023-05-07T00:17:40;6.82;;;4.53;;
34152;SDS011;20426;48.372;10.888;2023-05-07T00:18:11;9.05;;;5.00;;
34152;SDS011;20426;48.372;10.888;2023-05-07T00:18:42;8.13;;;5.10;;
34152;SDS011;20426;48.372;10.888;2023-05-07T00:19:13;7.72;;;4.80;;
34152;SDS011;20426;48.372;10.888;2023-05-07T00:19:43;9.40;;;5.07;;
34152;SDS011;20426;48.372;10.888;2023-05-07T00:20:14;7.65;;;5.18;;
34152;SDS011;20426;48.372;10.888;2023-05-07T00:20:45;9.43;;;4.90;;
34152;SDS011;20426;48.372;10.888;2023-05-07T00:21:16;6.70;;;4.47;;
34152;SDS011;20426;48.372;10.888;2023-05-07T00:21:46;8.32;;;4.38;;
34152;SDS011;20426;48.372;10.888;2023-05-07T00:22:17;6.72;;;4.45;;
34152;SDS011;20426;48.372;10.888;2023-05-07T00:22:48;5.63;;;4.35;;
34152;SDS011;20426;48.372;10.888;2023-05-07T00:23:18;9.10;;;4.85;;
34152;SDS011;20426;48.372;10.888;2023-05-07T00:23:49;8.80;;;4.70;;
34152;SDS011;20426;48.372;10.888;2023-05-07T00:24:20;7.50;;;4.25;;
34152;SDS011;20426;48.372;10.888;2023-05-07T00:24:51;7.07;;;4.30;;
34152;SDS011;20426;48.372;10.888;2023-05-07T00:25:21;7.88;;;4.35;;
34152;SDS011;20426;48.372;10.888;2023-05-07T00:25:52;6.85;;;4.28;;
34152;SDS011;20426;48.372;10.888;2023-05-07T00:26:23;7.50;;;4.75;;
34152;SDS011;20426;48.372;10.888;2023-05-07T00:26:53;5.50;;;4.28;;
34152;SDS011;20426;48.372;10.888;2023-05-07T00:27:24;8.35;;;4.40;;
34152;SDS011;20426;48.372;10.888;2023-05-07T00:27:55;6.13;;;4.55;;
34152;SDS011;20426;48.372;10.888;2023-05-07T00:28:27;5.85;;;4.40;;
34152;SDS011;20426;48.372;10.888;2023-05-07T00:28:58;8.15;;;4.50;;
34152;SDS011;20426;48.372;10.888;2023-05-07T00:29:28;8.32;;;4.65;;
34152;SDS011;20426;48.372;10.888;2023-05-07T00:29:59;9.82;;;5.13;;
34152;SDS011;20426;48.372;10.888;2023-05-07T00:30:30;11.10;;;5.38;;
34152;SDS011;20426;48.372;10.888;2023-05-07T00:31:00;8.88;;;5.05;;
34152;SDS011;20426;48.372;10.888;2023-05-07T00:31:31;7.18;;;4.95;;
34152;SDS011;20426;48.372;10.888;2023-05-07T00:32:02;8.88;;;5.68;;
34152;SDS011;20426;48.372;10.888;2023-05-07T00:32:32;12.60;;;5.53;;
34152;SDS011;20426;48.372;10.888;2023-05-07T00:33:03;8.27;;;5.80;;
34152;SDS011;20426;48.372;10.888;2023-05-07T00:33:34;8.93;;;6.07;;
34152;SDS011;20426;48.372;10.888;2023-05-07T00:34:04;9.45;;;5.40;;
34152;SDS011;20426;48.372;10.888;2023-05-07T00:34:36;8.70;;;6.00;;
34152;SDS011;20426;48.372;10.888;2023-05-07T00:35:06;8.68;;;6.10;;
34152;SDS011;20426;48.372;10.888;2023-05-07T00:35:38;13.27;;;6.43;;
34152;SDS011;20426;48.372;10.888;2023-05-07T00:36:08;10.32;;;5.93;;
34152;SDS011;20426;48.372;10.888;2023-05-07T00:36:39;10.15;;;5.25;;
34152;SDS011;20426;48.372;10.888;2023-05-07T00:37:10;8.20;;;5.35;;
34152;SDS011;20426;48.372;10.888;2023-05-07T00:37:42;8.73;;;5.60;;
34152;SDS011;20426;48.372;10.888;2023-05-07T00:38:15;8.02;;;5.28;;
34152;SDS011;20426;48.372;10.888;2023-05-07T00:38:46;7.40;;;5.50;;
34152;SDS011;20426;48.372;10.888;2023-05-07T00:39:16;9.38;;;5.65;;
34152;SDS011;20426;48.372;10.888;2023-05-07T00:39:47;8.20;;;5.50;;
34152;SDS011;20426;48.372;10.888;2023-05-07T00:40:18;7.03;;;5.18;;
34152;SDS011;20426;48.372;10.888;2023-05-07T00:40:48;7.82;;;5.45;;
34152;SDS011;20426;48.372;10.888;2023-05-07T00:41:20;8.13;;;4.93;;
34152;SDS011;20426;48.372;10.888;2023-05-07T00:41:51;9.05;;;5.65;;
34152;SDS011;20426;48.372;10.888;2023-05-07T00:42:22;8.30;;;5.28;;
34152;SDS011;20426;48.372;10.888;2023-05-07T00:42:54;8.98;;;5.72;;
34152;SDS011;20426;48.372;10.888;2023-05-07T00:43:26;8.80;;;5.47;;
34152;SDS011;20426;48.372;10.888;2023-05-07T00:43:57;8.05;;;5.63;;
34152;SDS011;20426;48.372;10.888;2023-05-07T00:44:28;8.90;;;5.32;;
34152;SDS011;20426;48.372;10.888;2023-05-07T00:44:59;8.98;;;5.72;;
34152;SDS011;20426;48.372;10.888;2023-05-07T00:45:30;8.10;;;5.20;;
34152;SDS011;20426;48.372;10.888;2023-05-07T00:46:01;8.98;;;5.65;;
34152;SDS011;20426;48.372;10.888;2023-05-07T00:46:32;8.77;;;5.60;;
34152;SDS011;20426;48.372;10.888;2023-05-07T00:47:03;8.20;;;5.75;;
34152;SDS011;20426;48.372;10.888;2023-05-07T00:47:35;10.25;;;5.72;;
34152;SDS011;20426;48.372;10.888;2023-05-07T00:48:06;8.57;;;5.55;;
34152;SDS011;20426;48.372;10.888;2023-05-07T00:48:37;7.85;;;5.43;;
34152;SDS011;20426;48.372;10.888;2023-05-07T00:49:07;7.05;;;5.30;;
34152;SDS011;20426;48.372;10.888;2023-05-07T00:49:39;7.57;;;5.50;;
34152;SDS011;20426;48.372;10.888;2023-05-07T00:50:12;8.05;;;5.50;;
34152;SDS011;20426;48.372;10.888;2023-05-07T00:50:43;8.63;;;5.68;;
34152;SDS011;20426;48.372;10.888;2023-05-07T00:51:14;8.00;;;5.75;;
34152;SDS011;20426;48.372;10.888;2023-05-07T00:51:45;6.88;;;5.32;;
34152;SDS011;20426;48.372;10.888;2023-05-07T00:52:17;10.60;;;5.82;;
34152;SDS011;20426;48.372;10.888;2023-05-07T00:52:51;7.45;;;5.68;;
34152;SDS011;20426;48.372;10.888;2023-05-07T00:53:22;9.13;;;5.70;;
34152;SDS011;20426;48.372;10.888;2023-05-07T00:53:53;7.85;;;5.85;;
34152;SDS011;20426;48.372;10.888;2023-05-07T00:54:24;13.35;;;6.03;;
34152;SDS011;20426;48.372;10.888;2023-05-07T00:54:54;9.77;;;6.22;;
34152;SDS011;20426;48.372;10.888;2023-05-07T00:55:25;7.25;;;5.22;;
34152;SDS011;20426;48.372;10.888;2023-05-07T00:55:56;6.63;;;5.15;;
34152;SDS011;20426;48.372;10.888;2023-05-07T00:56:27;7.20;;;5.13;;
34152;SDS011;20426;48.372;10.888;2023-05-07T00:56:58;7.28;;;5.00;;
34152;SDS011;20426;48.372;10.888;2023-05-07T00:57:29;6.38;;;4.70;;
34152;SDS011;20426;48.372;10.888;2023-05-07T00:58:02;7.05;;;4.82;;
34152;SDS011;20426;48.372;10.888;2023-05-07T00:58:33;7.15;;;5.03;;
34152;SDS011;20426;48.372;10.888;2023-05-07T00:59:04;7.22;;;4.70;;
34152;SDS011;20426;48.372;10.888;2023-05-07T00:59:35;9.57;;;5.05;;
34152;SDS011;20426;48.372;10.888;2023-05-07T01:00:07;7.20;;;5.00;;
34152;SDS011;20426;48.372;10.888;2023-05-07T01:00:40;5.40;;;4.57;;
34152;SDS011;20426;48.372;10.888;2023-05-07T01:01:10;7.53;;;4.90;;
34152;SDS011;20426;48.372;10.888;2023-05-07T01:01:41;7.00;;;4.72;;
34152;SDS011;20426;48.372;10.888;2023-05-07T01:02:12;7.88;;;4.70;;
34152;SDS011;20426;48.372;10.888;2023-05-07T01:02:42;8.20;;;4.93;;
34152;SDS011;20426;48.372;10.888;2023-05-07T01:03:13;7.82;;;4.88;;
34152;SDS011;20426;48.372;10.888;2023-05-07T01:03:44;6.38;;;5.00;;
34152;SDS011;20426;48.372;10.888;2023-05-07T01:04:15;8.10;;;4.65;;
34152;SDS011;20426;48.372;10.888;2023-05-07T01:04:45;7.45;;;4.25;;
34152;SDS011;20426;48.372;10.888;2023-05-07T01:05:16;5.57;;;4.55;;
34152;SDS011;20426;48.372;10.888;2023-05-07T01:05:49;5.93;;;4.40;;
34152;SDS011;20426;48.372;10.888;2023-05-07T01:06:21;6.10;;;4.50;;
34152;SDS011;20426;48.372;10.888;2023-05-07T01:06:56;5.82;;;4.57;;
34152;SDS011;20426;48.372;10.888;2023-05-07T01:07:29;7.43;;;4.72;;
34152;SDS011;20426;48.372;10.888;2023-05-07T01:08:00;5.50;;;4.30;;
34152;SDS011;20426;48.372;10.888;2023-05-07T01:08:31;9.48;;;4.72;;
34152;SDS011;20426;48.372;10.888;2023-05-07T01:09:02;6.53;;;4.35;;
34152;SDS011;20426;48.372;10.888;2023-05-07T01:09:34;5.13;;;4.10;;
34152;SDS011;20426;48.372;10.888;2023-05-07T01:10:06;6.78;;;4.30;;
34152;SDS011;20426;48.372;10.888;2023-05-07T01:10:38;7.28;;;4.03;;
34152;SDS011;20426;48.372;10.888;2023-05-07T01:11:12;10.48;;;4.20;;
34152;SDS011;20426;48.372;10.888;2023-05-07T01:11:44;6.20;;;4.72;;
34152;SDS011;20426;48.372;10.888;2023-05-07T01:12:15;5.90;;;4.05;;
34152;SDS011;20426;48.372;10.888;2023-05-07T01:12:46;5.60;;;4.55;;
34152;SDS011;20426;48.372;10.888;2023-05-07T01:13:18;7.28;;;4.65;;
34152;SDS011;20426;48.372;10.888;2023-05-07T01:13:50;8.73;;;4.90;;
34152;SDS011;20426;48.372;10.888;2023-05-07T01:14:21;6.15;;;4.63;;
34152;SDS011;20426;48.372;10.888;2023-05-07T01:14:52;6.05;;;3.95;;
34152;SDS011;20426;48.372;10.888;2023-05-07T01:15:23;5.75;;;4.43;;
34152;SDS011;20426;48.372;10.888;2023-05-07T01:15:53;7.57;;;4.50;;
34152;SDS011;20426;48.372;10.888;2023-05-07T01:16:24;5.90;;;4.22;;
34152;SDS011;20426;48.372;10.888;2023-05-07T01:16:55;5.85;;;4.03;;
34152;SDS011;20426;48.372;10.888;2023-05-07T01:17:26;6.93;;;4.00;;
34152;SDS011;20426;48.372;10.888;2023-05-07T01:17:56;6.78;;;4.68;;
34152;SDS011;20426;48.372;10.888;2023-05-07T01:18:27;7.13;;;4.05;;
34152;SDS011;20426;48.372;10.888;2023-05-07T01:19:00;8.38;;;4.07;;
34152;SDS011;20426;48.372;10.888;2023-05-07T01:19:31;6.20;;;5.18;;
34152;SDS011;20426;48.372;10.888;2023-05-07T01:20:01;6.43;;;4.45;;
34152;SDS011;20426;48.372;10.888;2023-05-07T01:20:34;7.90;;;4.65;;
34152;SDS011;20426;48.372;10.888;2023-05-07T01:21:05;6.85;;;4.10;;
34152;SDS011;20426;48.372;10.888;2023-05-07T01:21:38;11.50;;;4.55;;
34152;SDS011;20426;48.372;10.888;2023-05-07T01:22:14;7.85;;;4.40;;
34152;SDS011;20426;48.372;10.888;2023-05-07T01:22:47;5.82;;;4.25;;
34152;SDS011;20426;48.372;10.888;2023-05-07T01:23:19;9.32;;;4.75;;
34152;SDS011;20426;48.372;10.888;2023-05-07T01:23:49;7.35;;;4.28;;
34152;SDS011;20426;48.372;10.888;2023-05-07T01:24:20;6.90;;;4.35;;
34152;SDS011;20426;48.372;10.888;2023-05-07T01:24:51;5.70;;;4.00;;
34152;SDS011;20426;48.372;10.888;2023-05-07T01:25:22;5.18;;;3.75;;
34152;SDS011;20426;48.372;10.888;2023-05-07T01:25:54;5.50;;;4.22;;
34152;SDS011;20426;48.372;10.888;2023-05-07T01:26:25;6.75;;;3.95;;
34152;SDS011;20426;48.372;10.888;2023-05-07T01:26:56;6.10;;;4.35;;
34152;SDS011;20426;48.372;10.888;2023-05-07T01:27:27;6.50;;;4.22;;
34152;SDS011;20426;48.372;10.888;2023-05-07T01:27:58;4.43;;;3.88;;
34152;SDS011;20426;48.372;10.888;2023-05-07T01:28:32;6.95;;;4.25;;
34152;SDS011;20426;48.372;10.888;2023-05-07T01:29:02;4.75;;;3.70;;
34152;SDS011;20426;48.372;10.888;2023-05-07T01:29:33;6.15;;;3.65;;
34152;SDS011;20426;48.372;10.888;2023-05-07T01:30:04;6.75;;;3.90;;
34152;SDS011;20426;48.372;10.888;2023-05-07T01:30:35;5.97;;;4.05;;
34152;SDS011;20426;48.372;10.888;2023-05-07T01:31:08;6.03;;;4.22;;
34152;SDS011;20426;48.372;10.888;2023-05-07T01:31:40;5.90;;;4.25;;
34152;SDS011;20426;48.372;10.888;2023-05-07T01:32:12;4.75;;;3.58;;
34152;SDS011;20426;48.372;10.888;2023-05-07T01:32:51;7.38;;;3.80;;
34152;SDS011;20426;48.372;10.888;2023-05-07T01:33:26;5.90;;;3.95;;
34152;SDS011;20426;48.372;10.888;2023-05-07T01:34:01;4.85;;;4.03;;
34152;SDS011;20426;48.372;10.888;2023-05-07T01:34:35;8.30;;;4.07;;
34152;SDS011;20426;48.372;10.888;2023-05-07T01:35:07;6.50;;;4.05;;
34152;SDS011;20426;48.372;10.888;2023-05-07T01:35:42;6.20;;;4.18;;
34152;SDS011;20426;48.372;10.888;2023-05-07T01:36:15;6.07;;;3.97;;
34152;SDS011;20426;48.372;10.888;2023-05-07T01:36:48;6.88;;;4.38;;
34152;SDS011;20426;48.372;10.888;2023-05-07T01:37:19;8.20;;;3.97;;
34152;SDS011;20426;48.372;10.888;2023-05-07T01:37:51;8.45;;;4.38;;
34152;SDS011;20426;48.372;10.888;2023-05-07T01:38:23;5.18;;;3.63;;
34152;SDS011;20426;48.372;10.888;2023-05-07T01:38:54;7.38;;;4.53;;
34152;SDS011;20426;48.372;10.888;2023-05-07T01:39:28;6.85;;;4.35;;
34152;SDS011;20426;48.372;10.888;2023-05-07T01:40:01;8.10;;;5.13;;
34152;SDS011;20426;48.372;10.888;2023-05-07T01:40:33;8.65;;;4.50;;
34152;SDS011;20426;48.372;10.888;2023-05-07T01:41:04;7.05;;;4.85;;
34152;SDS011;20426;48.372;10.888;2023-05-07T01:41:35;9.55;;;4.65;;
34152;SDS011;20426;48.372;10.888;2023-05-07T01:42:07;8.25;;;5.18;;
34152;SDS011;20426;48.372;10.888;2023-05-07T01:42:37;7.03;;;4.70;;
34152;SDS011;20426;48.372;10.888;2023-05-07T01:43:08;5.97;;;4.38;;
34152;SDS011;20426;48.372;10.888;2023-05-07T01:43:40;7.93;;;4.68;;
34152;SDS011;20426;48.372;10.888;2023-05-07T01:44:12;8.70;;;4.68;;
34152;SDS011;20426;48.372;10.888;2023-05-07T01:44:44;7.72;;;5.07;;
34152;SDS011;20426;48.372;10.888;2023-05-07T01:45:15;10.43;;;5.07;;
34152;SDS011;20426;48.372;10.888;2023-05-07T01:45:46;10.52;;;4.65;;
34152;SDS011;20426;48.372;10.888;2023-05-07T01:46:19;6.75;;;4.50;;
34152;SDS011;20426;48.372;10.888;2023-05-07T01:46:50;7.25;;;4.60;;
34152;SDS011;20426;48.372;10.888;2023-05-07T01:47:21;7.75;;;4.47;;
34152;SDS011;20426;48.372;10.888;2023-05-07T01:47:52;8.77;;;4.32;;
34152;SDS011;20426;48.372;10.888;2023-05-07T01:48:24;5.63;;;4.20;;
34152;SDS011;20426;48.372;10.888;2023-05-07T01:48:54;5.90;;;4.47;;
34152;SDS011;20426;48.372;10.888;2023-05-07T01:49:25;8.40;;;4.68;;
34152;SDS011;20426;48.372;10.888;2023-05-07T01:49:56;10.18;;;4.82;;
34152;SDS011;20426;48.372;10.888;2023-05-07T01:50:28;6.70;;;4.57;;
34152;SDS011;20426;48.372;10.888;2023-05-07T01:51:00;11.57;;;4.95;;
34152;SDS011;20426;48.372;10.888;2023-05-07T01:51:32;6.78;;;4.63;;
34152;SDS011;20426;48.372;10.888;2023-05-07T01:52:03;10.55;;;5.20;;
34152;SDS011;20426;48.372;10.888;2023-05-07T01:52:34;11.73;;;4.88;;
34152;SDS011;20426;48.372;10.888;2023-05-07T01:53:06;9.27;;;4.25;;
34152;SDS011;20426;48.372;10.888;2023-05-07T01:53:37;6.88;;;4.47;;
34152;SDS011;20426;48.372;10.888;2023-05-07T01:54:08;7.22;;;4.55;;
34152;SDS011;20426;48.372;10.888;2023-05-07T01:54:39;6.50;;;4.07;;
34152;SDS011;20426;48.372;10.888;2023-05-07T01:55:11;7.43;;;4.65;;
34152;SDS011;20426;48.372;10.888;2023-05-07T01:55:41;5.07;;;3.67;;
34152;SDS011;20426;48.372;10.888;2023-05-07T01:56:12;9.07;;;4.72;;
34152;SDS011;20426;48.372;10.888;2023-05-07T01:56:43;8.80;;;4.95;;
34152;SDS011;20426;48.372;10.888;2023-05-07T01:57:13;7.10;;;5.03;;
34152;SDS011;20426;48.372;10.888;2023-05-07T01:58:55;6.45;;;4.43;;
34152;SDS011;20426;48.372;10.888;2023-05-07T01:59:26;6.97;;;4.30;;
34152;SDS011;20426;48.372;10.888;2023-05-07T01:59:56;5.20;;;3.80;;
34152;SDS011;20426;48.372;10.888;2023-05-07T02:00:27;7.70;;;4.53;;
34152;SDS011;20426;48.372;10.888;2023-05-07T02:00:59;8.40;;;4.60;;
34152;SDS011;20426;48.372;10.888;2023-05-07T02:01:30;9.18;;;4.47;;
34152;SDS011;20426;48.372;10.888;2023-05-07T02:02:01;7.13;;;4.97;;
34152;SDS011;20426;48.372;10.888;2023-05-07T02:02:31;9.20;;;4.80;;
34152;SDS011;20426;48.372;10.888;2023-05-07T02:03:02;8.32;;;4.55;;
34152;SDS011;20426;48.372;10.888;2023-05-07T02:03:33;6.07;;;4.18;;
34152;SDS011;20426;48.372;10.888;2023-05-07T02:04:04;7.32;;;4.50;;
34152;SDS011;20426;48.372;10.888;2023-05-07T02:04:34;5.18;;;3.67;;
34152;SDS011;20426;48.372;10.888;2023-05-07T02:05:05;11.18;;;4.43;;
34152;SDS011;20426;48.372;10.888;2023-05-07T02:05:36;4.75;;;3.83;;
34152;SDS011;20426;48.372;10.888;2023-05-07T02:06:07;6.93;;;4.47;;
34152;SDS011;20426;48.372;10.888;2023-05-07T02:06:37;10.13;;;4.38;;
34152;SDS011;20426;48.372;10.888;2023-05-07T02:07:08;7.28;;;4.07;;
34152;SDS011;20426;48.372;10.888;2023-05-07T02:07:39;8.05;;;4.40;;
34152;SDS011;20426;48.372;10.888;2023-05-07T02:08:09;5.10;;;4.22;;
34152;SDS011;20426;48.372;10.888;2023-05-07T02:08:40;6.00;;;4.30;;
34152;SDS011;20426;48.372;10.888;2023-05-07T02:09:11;5.75;;;4.13;;
34152;SDS011;20426;48.372;10.888;2023-05-07T02:09:42;7.50;;;3.80;;
34152;SDS011;20426;48.372;10.888;2023-05-07T02:10:12;6.18;;;4.25;;
34152;SDS011;20426;48.372;10.888;2023-05-07T02:10:43;8.30;;;4.07;;
34152;SDS011;20426;48.372;10.888;2023-05-07T02:11:14;10.18;;;4.47;;
34152;SDS011;20426;48.372;10.888;2023-05-07T02:11:44;7.80;;;4.03;;
34152;SDS011;20426;48.372;10.888;2023-05-07T02:12:15;6.43;;;4.35;;
34152;SDS011;20426;48.372;10.888;2023-05-07T02:12:46;5.03;;;3.70;;
34152;SDS011;20426;48.372;10.888;2023-05-07T02:13:16;9.77;;;4.20;;
34152;SDS011;20426;48.372;10.888;2023-05-07T02:13:47;5.13;;;3.63;;
34152;SDS011;20426;48.372;10.888;2023-05-07T02:14:18;6.30;;;4.35;;
34152;SDS011;20426;48.372;10.888;2023-05-07T02:14:50;7.18;;;3.75;;
34152;SDS011;20426;48.372;10.888;2023-05-07T02:15:20;7.03;;;3.88;;
34152;SDS011;20426;48.372;10.888;2023-05-07T02:15:51;5.50;;;3.60;;
34152;SDS011;20426;48.372;10.888;2023-05-07T02:16:22;7.15;;;3.95;;
34152;SDS011;20426;48.372;10.888;2023-05-07T02:16:53;8.85;;;4.30;;
34152;SDS011;20426;48.372;10.888;2023-05-07T02:17:24;7.30;;;4.00;;
34152;SDS011;20426;48.372;10.888;2023-05-07T02:18:06;5.68;;;4.10;;
34152;SDS011;20426;48.372;10.888;2023-05-07T02:18:41;6.13;;;3.60;;
34152;SDS011;20426;48.372;10.888;2023-05-07T02:19:12;6.22;;;4.07;;
34152;SDS011;20426;48.372;10.888;2023-05-07T02:19:43;6.38;;;4.18;;
34152;SDS011;20426;48.372;10.888;2023-05-07T02:20:13;6.93;;;3.67;;
34152;SDS011;20426;48.372;10.888;2023-05-07T02:20:44;5.20;;;4.10;;
34152;SDS011;20426;48.372;10.888;2023-05-07T02:21:15;5.10;;;3.72;;
34152;SDS011;20426;48.372;10.888;2023-05-07T02:21:46;6.43;;;4.53;;
34152;SDS011;20426;48.372;10.888;2023-05-07T02:22:17;9.32;;;4.28;;
34152;SDS011;20426;48.372;10.888;2023-05-07T02:22:48;6.38;;;3.42;;
34152;SDS011;20426;48.372;10.888;2023-05-07T02:23:18;4.55;;;3.58;;
34152;SDS011;20426;48.372;10.888;2023-05-07T02:23:49;7.25;;;3.97;;
34152;SDS011;20426;48.372;10.888;2023-05-07T02:24:20;7.90;;;3.80;;
34152;SDS011;20426;48.372;10.888;2023-05-07T02:24:51;7.82;;;4.60;;
34152;SDS011;20426;48.372;10.888;2023-05-07T02:25:21;5.45;;;3.63;;
34152;SDS011;20426;48.372;10.888;2023-05-07T02:25:52;8.43;;;3.85;;
34152;SDS011;20426;48.372;10.888;2023-05-07T02:26:23;5.90;;;3.60;;
34152;SDS011;20426;48.372;10.888;2023-05-07T02:26:54;5.32;;;3.75;;
34152;SDS011;20426;48.372;10.888;2023-05-07T02:27:24;5.80;;;4.40;;
34152;SDS011;20426;48.372;10.888;2023-05-07T02:27:55;4.68;;;3.70;;
34152;SDS011;20426;48.372;10.888;2023-05-07T02:28:26;5.53;;;3.78;;
34152;SDS011;20426;48.372;10.888;2023-05-07T02:28:56;5.47;;;4.03;;
34152;SDS011;20426;48.372;10.888;2023-05-07T02:29:27;6.28;;;4.00;;
34152;SDS011;20426;48.372;10.888;2023-05-07T02:29:58;5.63;;;3.88;;
34152;SDS011;20426;48.372;10.888;2023-05-07T02:30:28;8.15;;;4.20;;
34152;SDS011;20426;48.372;10.888;2023-05-07T02:30:59;8.98;;;4.00;;
34152;SDS011;20426;48.372;10.888;2023-05-07T02:31:30;5.82;;;3.95;;
34152;SDS011;20426;48.372;10.888;2023-05-07T02:32:01;8.23;;;3.85;;
34152;SDS011;20426;48.372;10.888;2023-05-07T02:32:32;8.00;;;4.05;;
34152;SDS011;20426;48.372;10.888;2023-05-07T02:33:02;5.45;;;4.10;;
34152;SDS011;20426;48.372;10.888;2023-05-07T02:33:33;6.75;;;4.00;;
34152;SDS011;20426;48.372;10.888;2023-05-07T02:34:05;5.93;;;4.10;;
34152;SDS011;20426;48.372;10.888;2023-05-07T02:34:36;6.22;;;4.20;;
34152;SDS011;20426;48.372;10.888;2023-05-07T02:35:06;5.50;;;3.78;;
34152;SDS011;20426;48.372;10.888;2023-05-07T02:35:37;5.53;;;4.07;;
34152;SDS011;20426;48.372;10.888;2023-05-07T02:36:09;4.25;;;3.75;;
34152;SDS011;20426;48.372;10.888;2023-05-07T02:36:40;6.70;;;4.10;;
34152;SDS011;20426;48.372;10.888;2023-05-07T02:37:11;8.38;;;3.97;;
34152;SDS011;20426;48.372;10.888;2023-05-07T02:37:41;5.28;;;3.90;;
34152;SDS011;20426;48.372;10.888;2023-05-07T02:38:12;5.47;;;4.00;;
34152;SDS011;20426;48.372;10.888;2023-05-07T02:38:43;4.80;;;3.58;;
34152;SDS011;20426;48.372;10.888;2023-05-07T02:39:14;5.97;;;4.68;;
34152;SDS011;20426;48.372;10.888;2023-05-07T02:39:45;6.63;;;3.80;;
34152;SDS011;20426;48.372;10.888;2023-05-07T02:40:16;6.03;;;3.92;;
34152;SDS011;20426;48.372;10.888;2023-05-07T02:40:46;7.15;;;4.30;;
34152;SDS011;20426;48.372;10.888;2023-05-07T02:41:17;5.68;;;3.88;;
34152;SDS011;20426;48.372;10.888;2023-05-07T02:41:48;7.22;;;3.85;;
34152;SDS011;20426;48.372;10.888;2023-05-07T02:42:19;6.32;;;4.10;;
34152;SDS011;20426;48.372;10.888;2023-05-07T02:42:49;7.57;;;4.05;;
34152;SDS011;20426;48.372;10.888;2023-05-07T02:43:20;8.13;;;4.20;;
34152;SDS011;20426;48.372;10.888;2023-05-07T02:43:51;5.70;;;3.83;;
34152;SDS011;20426;48.372;10.888;2023-05-07T02:44:21;7.30;;;4.50;;
34152;SDS011;20426;48.372;10.888;2023-05-07T02:44:52;5.63;;;3.70;;
34152;SDS011;20426;48.372;10.888;2023-05-07T02:45:23;7.68;;;4.07;;
34152;SDS011;20426;48.372;10.888;2023-05-07T02:46:00;6.63;;;4.55;;
34152;SDS011;20426;48.372;10.888;2023-05-07T02:46:34;5.72;;;4.03;;
34152;SDS011;20426;48.372;10.888;2023-05-07T02:47:05;6.43;;;4.20;;
34152;SDS011;20426;48.372;10.888;2023-05-07T02:47:38;7.13;;;4.22;;
34152;SDS011;20426;48.372;10.888;2023-05-07T02:48:09;7.20;;;4.25;;
34152;SDS011;20426;48.372;10.888;2023-05-07T02:48:39;5.65;;;3.92;;
34152;SDS011;20426;48.372;10.888;2023-05-07T02:49:10;5.63;;;4.30;;
34152;SDS011;20426;48.372;10.888;2023-05-07T02:49:41;5.47;;;4.20;;
34152;SDS011;20426;48.372;10.888;2023-05-07T02:50:11;6.45;;;4.00;;
34152;SDS011;20426;48.372;10.888;2023-05-07T02:50:42;7.15;;;4.32;;
34152;SDS011;20426;48.372;10.888;2023-05-07T02:51:13;5.00;;;3.53;;
34152;SDS011;20426;48.372;10.888;2023-05-07T02:51:44;4.13;;;3.65;;
34152;SDS011;20426;48.372;10.888;2023-05-07T02:52:15;6.53;;;4.22;;
34152;SDS011;20426;48.372;10.888;2023-05-07T02:52:45;5.30;;;4.28;;
34152;SDS011;20426;48.372;10.888;2023-05-07T02:53:17;7.20;;;3.95;;
34152;SDS011;20426;48.372;10.888;2023-05-07T02:53:48;4.28;;;3.88;;
34152;SDS011;20426;48.372;10.888;2023-05-07T02:54:18;5.00;;;3.72;;
34152;SDS011;20426;48.372;10.888;2023-05-07T02:54:49;7.90;;;3.60;;
34152;SDS011;20426;48.372;10.888;2023-05-07T02:55:20;6.50;;;3.95;;
34152;SDS011;20426;48.372;10.888;2023-05-07T02:55:54;6.18;;;4.00;;
34152;SDS011;20426;48.372;10.888;2023-05-07T02:56:26;4.88;;;3.60;;
34152;SDS011;20426;48.372;10.888;2023-05-07T02:56:57;5.30;;;3.45;;
34152;SDS011;20426;48.372;10.888;2023-05-07T02:57:28;4.53;;;3.33;;
34152;SDS011;20426;48.372;10.888;2023-05-07T02:57:58;7.90;;;4.32;;
34152;SDS011;20426;48.372;10.888;2023-05-07T02:58:29;5.50;;;3.53;;
34152;SDS011;20426;48.372;10.888;2023-05-07T02:59:00;4.35;;;3.60;;
34152;SDS011;20426;48.372;10.888;2023-05-07T02:59:30;6.28;;;3.88;;
34152;SDS011;20426;48.372;10.888;2023-05-07T03:00:09;7.55;;;3.60;;
34152;SDS011;20426;48.372;10.888;2023-05-07T03:00:41;4.97;;;3.92;;
34152;SDS011;20426;48.372;10.888;2023-05-07T03:01:12;4.97;;;3.92;;
34152;SDS011;20426;48.372;10.888;2023-05-07T03:01:44;6.68;;;4.30;;
34152;SDS011;20426;48.372;10.888;2023-05-07T03:02:15;4.47;;;3.80;;
34152;SDS011;20426;48.372;10.888;2023-05-07T03:02:46;6.45;;;3.53;;
34152;SDS011;20426;48.372;10.888;2023-05-07T03:03:16;5.88;;;3.95;;
34152;SDS011;20426;48.372;10.888;2023-05-07T03:03:47;6.15;;;4.00;;
34152;SDS011;20426;48.372;10.888;2023-05-07T03:04:18;5.00;;;3.67;;
34152;SDS011;20426;48.372;10.888;2023-05-07T03:04:49;10.43;;;3.97;;
34152;SDS011;20426;48.372;10.888;2023-05-07T03:05:19;5.55;;;3.45;;
34152;SDS011;20426;48.372;10.888;2023-05-07T03:05:50;6.47;;;3.60;;
34152;SDS011;20426;48.372;10.888;2023-05-07T03:06:21;5.18;;;4.00;;